McGregor, Canada
Current Conditions -  °F | °C
As of 3:00 PM on Thursday 23 Oct 2014 (Local Time) from CYQG Reporting Station
Scattered Clouds Scattered Clouds  
Wind Chill: 57°   Ceiling: Unl
Heat Index: 57°   Visibility: 15mi
Dew Point: 37°   Wind: 6mph
Humidity: 48%   Direction: 230°SW
Pressure: 30.16"   Gusts: NA
Location:  42.15°N, 82.97°W
Report Text: CYQG 231900Z 23005KT 200V300 15SM SCT280 14/03 A3016 RMK CI3 SLP215
Loading
Personal Weather Stations






























Interactive Weather Map
Tropical Storm Tracking
New forecast layout! Learn more

10-Day Weather Forecast

Advertisements
Track Severe Weather on mobile